Time;durP1;ratioP1;P1;durP2;ratioP2;P2;SDS_P1;SDS_P2;PMS_P1;PMS_P2;Temp;Humidity;BMP_temperature;BMP_pressure;BME280_temperature;BME280_humidity;BME280_pressure;Samples;Min_cycle;Max_cycle;Signal;HPM_P1;HPM_P2
2024/04/18 00:01:02;;;;;;;0.00;0.00;;;5.50;99.90;;;;;;5197618;27;20455;-62
2024/04/18 00:03:28;;;;;;;0.00;0.00;;;5.50;99.90;;;;;;5198042;27;20466;-62
2024/04/18 00:05:53;;;;;;;0.00;0.00;;;5.50;99.90;;;;;;5198730;27;20079;-62
2024/04/18 00:08:20;;;;;;;0.00;0.00;;;5.50;99.90;;;;;;5187645;27;20016;-62
2024/04/18 00:10:46;;;;;;;0.00;0.00;;;5.50;99.90;;;;;;5198656;27;20028;-62
2024/04/18 00:13:11;;;;;;;0.00;0.00;;;5.50;99.90;;;;;;5202993;27;20414;-63
2024/04/18 00:15:38;;;;;;;0.00;0.00;;;5.50;99.90;;;;;;5198821;27;20019;-63
2024/04/18 00:18:04;;;;;;;0.00;0.00;;;5.50;99.90;;;;;;5211484;27;20425;-62
2024/04/18 00:20:30;;;;;;;0.00;0.00;;;5.40;99.90;;;;;;5198182;27;20394;-62
2024/04/18 00:22:56;;;;;;;0.00;0.00;;;5.40;99.90;;;;;;5198071;27;20083;-63
2024/04/18 00:25:21;;;;;;;0.00;0.00;;;5.40;99.90;;;;;;5197974;27;20454;-62
2024/04/18 00:27:47;;;;;;;0.00;0.00;;;5.40;99.90;;;;;;5198329;27;20014;-62
2024/04/18 00:30:13;;;;;;;0.00;0.00;;;5.40;99.90;;;;;;5197176;27;20087;-62
2024/04/18 00:32:40;;;;;;;0.00;0.00;;;5.40;99.90;;;;;;5197818;27;20358;-62
2024/04/18 00:35:06;;;;;;;0.00;0.00;;;5.40;99.90;;;;;;5197093;27;20052;-62
2024/04/18 00:37:32;;;;;;;0.00;0.00;;;5.40;99.90;;;;;;5211657;27;20500;-62
2024/04/18 00:39:58;;;;;;;0.00;0.00;;;5.40;99.90;;;;;;5196285;27;20026;-62
2024/04/18 00:42:24;;;;;;;0.00;0.00;;;5.40;99.90;;;;;;5197581;27;20087;-62
2024/04/18 00:44:50;;;;;;;0.00;0.00;;;5.50;99.90;;;;;;5198264;27;20023;-63
2024/04/18 00:47:16;;;;;;;0.00;0.00;;;5.40;99.90;;;;;;5196282;27;20018;-62
2024/04/18 00:49:42;;;;;;;0.03;0.00;;;5.50;99.90;;;;;;5198677;27;20459;-62
2024/04/18 00:52:28;;;;;;;0.00;0.00;;;5.50;99.90;;;;;;5187080;27;20008;-62
2024/04/18 00:54:55;;;;;;;0.00;0.00;;;5.50;99.90;;;;;;5164516;27;20027;-62
2024/04/18 00:57:41;;;;;;;0.00;0.00;;;5.50;99.90;;;;;;5191479;27;20008;-62
2024/04/18 01:00:08;;;;;;;0.00;0.00;;;5.50;99.90;;;;;;5197538;27;20528;-62
2024/04/18 01:02:35;;;;;;;0.00;0.00;;;5.50;99.90;;;;;;5195798;27;20023;-62
2024/04/18 01:05:01;;;;;;;0.00;0.00;;;5.60;99.90;;;;;;5196522;27;20012;-62
2024/04/18 01:07:33;;;;;;;0.00;0.00;;;5.60;99.90;;;;;;5196629;27;20000;-62
2024/04/18 01:09:59;;;;;;;0.00;0.00;;;5.70;99.90;;;;;;5197010;27;20011;-62
2024/04/18 01:12:25;;;;;;;0.00;0.00;;;5.70;99.90;;;;;;5197363;27;20003;-62
2024/04/18 01:14:52;;;;;;;0.00;0.00;;;5.70;99.90;;;;;;5197361;27;20052;-62
2024/04/18 01:17:18;;;;;;;0.00;0.00;;;5.80;99.90;;;;;;5196384;27;20022;-62
2024/04/18 01:19:44;;;;;;;0.00;0.00;;;5.80;99.90;;;;;;5197503;27;20447;-62
2024/04/18 01:22:10;;;;;;;0.00;0.00;;;5.80;99.90;;;;;;5195973;27;20089;-62
2024/04/18 01:24:36;;;;;;;0.00;0.00;;;5.90;99.90;;;;;;5197517;27;20094;-62
2024/04/18 01:27:03;;;;;;;0.00;0.00;;;5.90;99.90;;;;;;5196030;27;20439;-62
2024/04/18 01:29:31;;;;;;;0.00;0.00;;;5.80;99.90;;;;;;5198307;27;20031;-62
2024/04/18 01:31:57;;;;;;;0.00;0.00;;;5.80;99.90;;;;;;5167820;27;20435;-62
2024/04/18 01:34:24;;;;;;;0.00;0.00;;;5.80;99.90;;;;;;5196042;27;20030;-62
2024/04/18 01:36:51;;;;;;;0.00;0.00;;;5.80;99.90;;;;;;5198246;27;20011;-62
2024/04/18 01:39:18;;;;;;;0.00;0.00;;;5.80;99.90;;;;;;5195882;27;20019;-62
2024/04/18 01:41:44;;;;;;;0.00;0.00;;;5.80;99.90;;;;;;5196444;27;20003;-62
2024/04/18 01:44:10;;;;;;;0.00;0.00;;;5.80;99.90;;;;;;5196087;27;20023;-62
2024/04/18 01:46:37;;;;;;;0.00;0.00;;;5.80;99.90;;;;;;5197539;27;20529;-62
2024/04/18 01:49:03;;;;;;;0.00;0.00;;;5.80;99.90;;;;;;5196664;27;20553;-62
2024/04/18 01:51:29;;;;;;;0.00;0.00;;;5.70;99.90;;;;;;5196517;27;20004;-62
2024/04/18 01:53:55;;;;;;;0.00;0.00;;;5.80;99.90;;;;;;5197212;27;20023;-62
2024/04/18 01:56:21;;;;;;;0.00;0.00;;;5.80;99.90;;;;;;5169792;27;20019;-62
2024/04/18 01:58:47;;;;;;;0.00;0.00;;;5.90;99.90;;;;;;5192705;27;20026;-62
2024/04/18 02:01:12;;;;;;;0.00;0.00;;;5.80;99.90;;;;;;5198760;27;20011;-62
2024/04/18 02:03:39;;;;;;;0.00;0.00;;;5.80;99.90;;;;;;5199499;27;20018;-62
2024/04/18 02:06:05;;;;;;;0.00;0.00;;;5.80;99.90;;;;;;5198632;27;20007;-62
2024/04/18 02:08:31;;;;;;;0.00;0.00;;;5.80;99.90;;;;;;5200374;27;20004;-62
2024/04/18 02:10:57;;;;;;;0.30;0.00;;;5.90;99.90;;;;;;5198798;27;20337;-62
2024/04/18 02:13:24;;;;;;;0.00;0.00;;;6.00;99.90;;;;;;5200284;27;20020;-62
2024/04/18 02:15:50;;;;;;;0.00;0.00;;;6.00;99.90;;;;;;5199512;27;20343;-62
2024/04/18 02:18:16;;;;;;;0.00;0.00;;;6.00;99.90;;;;;;5193623;27;20015;-62
2024/04/18 02:20:42;;;;;;;0.00;0.00;;;6.00;99.90;;;;;;5199299;27;20354;-62
2024/04/18 02:23:08;;;;;;;0.00;0.00;;;6.00;99.90;;;;;;5199373;27;20020;-62
2024/04/18 02:25:34;;;;;;;0.00;0.00;;;6.00;99.90;;;;;;5171255;27;20413;-62
2024/04/18 02:28:00;;;;;;;0.00;0.00;;;6.00;99.90;;;;;;5224726;27;20019;-62
2024/04/18 02:30:26;;;;;;;0.00;0.00;;;6.00;99.90;;;;;;5199655;27;20448;-62
2024/04/18 02:32:52;;;;;;;0.00;0.00;;;5.90;99.90;;;;;;5199655;27;20011;-62
2024/04/18 02:35:17;;;;;;;0.00;0.00;;;5.90;99.90;;;;;;5198892;27;20032;-62
2024/04/18 02:37:44;;;;;;;0.00;0.00;;;5.90;99.90;;;;;;5199795;27;20394;-62
2024/04/18 02:40:11;;;;;;;0.00;0.00;;;5.90;99.90;;;;;;5199745;27;20008;-62
2024/04/18 02:42:37;;;;;;;0.00;0.00;;;5.90;99.90;;;;;;5200536;27;20039;-62
2024/04/18 02:45:04;;;;;;;0.00;0.00;;;5.90;99.90;;;;;;5198029;27;20012;-62
2024/04/18 02:47:29;;;;;;;0.00;0.00;;;5.80;99.90;;;;;;5199317;27;20051;-62
2024/04/18 02:49:56;;;;;;;0.00;0.00;;;5.90;99.90;;;;;;5199790;27;20016;-62
2024/04/18 02:52:23;;;;;;;0.00;0.00;;;5.90;99.90;;;;;;5198260;27;20056;-62
2024/04/18 02:54:48;;;;;;;0.00;0.00;;;5.80;99.90;;;;;;5199937;27;20024;-62
2024/04/18 02:57:15;;;;;;;0.00;0.00;;;5.80;99.90;;;;;;5200642;27;20008;-62
2024/04/18 02:59:41;;;;;;;0.00;0.00;;;5.90;99.90;;;;;;5200526;27;20008;-62
2024/04/18 03:02:06;;;;;;;0.00;0.00;;;5.80;99.90;;;;;;5194878;27;20014;-62
2024/04/18 03:04:32;;;;;;;0.00;0.00;;;5.80;99.90;;;;;;5198802;27;20591;-62
2024/04/18 03:06:58;;;;;;;0.00;0.00;;;5.80;99.90;;;;;;5196594;27;20015;-62
2024/04/18 03:09:24;;;;;;;0.00;0.00;;;5.70;99.90;;;;;;5191029;27;20020;-62
2024/04/18 03:11:53;;;;;;;0.00;0.00;;;5.70;99.90;;;;;;5190549;27;20004;-62
2024/04/18 03:14:19;;;;;;;0.00;0.00;;;5.70;99.90;;;;;;5198326;27;20043;-62
2024/04/18 03:16:44;;;;;;;0.00;0.00;;;5.70;99.90;;;;;;5198492;27;20019;-62
2024/04/18 03:19:30;;;;;;;0.00;0.00;;;5.70;99.90;;;;;;5193449;27;20430;-62
2024/04/18 03:21:56;;;;;;;0.00;0.00;;;5.60;99.90;;;;;;5189154;27;20087;-62
2024/04/18 03:24:23;;;;;;;0.00;0.00;;;5.60;99.90;;;;;;5199101;27;20011;-62
2024/04/18 03:26:52;;;;;;;0.03;0.00;;;5.50;99.90;;;;;;5197584;27;20003;-62
2024/04/18 03:29:37;;;;;;;0.00;0.00;;;5.50;99.90;;;;;;5203033;27;20043;-62
2024/04/18 03:32:04;;;;;;;0.00;0.00;;;5.50;99.90;;;;;;5196768;27;20144;-62
2024/04/18 03:34:29;;;;;;;0.00;0.00;;;5.40;99.90;;;;;;5199998;27;20086;-62
2024/04/18 03:36:57;;;;;;;0.00;0.00;;;5.40;99.90;;;;;;5196842;27;20414;-62
2024/04/18 03:39:29;;;;;;;0.00;0.00;;;5.40;99.90;;;;;;5199678;27;20089;-62
2024/04/18 03:41:55;;;;;;;0.00;0.00;;;5.40;99.90;;;;;;5189683;27;20022;-62
2024/04/18 03:44:21;;;;;;;0.00;0.00;;;5.50;99.90;;;;;;5197660;27;20003;-62
2024/04/18 03:47:07;;;;;;;0.00;0.00;;;5.50;99.90;;;;;;5197061;27;20048;-62
2024/04/18 03:49:33;;;;;;;0.00;0.00;;;5.60;99.90;;;;;;5201524;27;20012;-62
2024/04/18 03:52:19;;;;;;;0.00;0.00;;;5.70;99.90;;;;;;5197177;27;20007;-62
2024/04/18 03:54:46;;;;;;;0.00;0.00;;;5.80;99.90;;;;;;5199158;27;20011;-62
2024/04/18 03:57:32;;;;;;;0.00;0.00;;;5.90;99.90;;;;;;5195638;27;20403;-62
2024/04/18 03:59:58;;;;;;;0.00;0.00;;;5.90;99.90;;;;;;5198132;27;20336;-62
2024/04/18 04:02:24;;;;;;;0.00;0.00;;;5.90;99.90;;;;;;5197641;27;20010;-62
2024/04/18 04:04:55;;;;;;;;;;;5.80;99.90;;;;;;5200515;27;20027;-62
2024/04/18 04:07:20;;;;;;;0.00;0.00;;;5.80;99.90;;;;;;5208540;27;20251;-62
2024/04/18 04:10:07;;;;;;;0.00;0.00;;;5.80;99.90;;;;;;5179578;27;20340;-62
2024/04/18 04:12:36;;;;;;;0.10;0.10;;;5.80;99.90;;;;;;5198337;27;20026;-62
2024/04/18 04:15:03;;;;;;;0.00;0.00;;;5.80;99.90;;;;;;5197251;27;20012;-62
2024/04/18 04:17:49;;;;;;;0.00;0.00;;;5.70;99.90;;;;;;5197096;27;20000;-62
2024/04/18 04:20:14;;;;;;;0.00;0.00;;;5.70;99.90;;;;;;5196535;27;20026;-62
2024/04/18 04:22:41;;;;;;;0.00;0.00;;;5.70;99.90;;;;;;5198581;27;20011;-62
2024/04/18 04:25:07;;;;;;;0.00;0.00;;;5.60;99.90;;;;;;5198447;27;20004;-62
2024/04/18 04:27:47;;;;;;;0.00;0.00;;;5.60;99.90;;;;;;5197216;27;20358;-62
2024/04/18 04:30:12;;;;;;;0.00;0.00;;;5.50;99.90;;;;;;5196724;27;20459;-62
2024/04/18 04:32:38;;;;;;;0.00;0.00;;;5.30;99.90;;;;;;5196671;27;20071;-62
2024/04/18 04:35:07;;;;;;;0.00;0.00;;;5.20;99.90;;;;;;5180647;27;20020;-62
2024/04/18 04:37:32;;;;;;;0.00;0.00;;;5.00;99.90;;;;;;5184537;27;20012;-62
2024/04/18 04:39:58;;;;;;;0.00;0.00;;;4.90;99.90;;;;;;5197115;27;20524;-62
2024/04/18 04:42:25;;;;;;;0.00;0.00;;;4.80;99.90;;;;;;5198957;27;20022;-62
2024/04/18 04:44:52;;;;;;;0.00;0.00;;;4.70;99.90;;;;;;5197263;27;20330;-62
2024/04/18 04:47:18;;;;;;;0.00;0.00;;;4.60;99.90;;;;;;5198602;27;20070;-63
2024/04/18 04:49:44;;;;;;;0.00;0.00;;;4.50;99.90;;;;;;5194439;27;20004;-62
2024/04/18 04:52:15;;;;;;;0.00;0.00;;;4.40;99.90;;;;;;5198528;27;20020;-62
2024/04/18 04:54:43;;;;;;;0.00;0.00;;;4.30;99.90;;;;;;5196281;27;20004;-62
2024/04/18 04:57:10;;;;;;;0.00;0.00;;;4.30;99.90;;;;;;5197928;27;20012;-62
2024/04/18 04:59:37;;;;;;;0.00;0.00;;;4.30;99.90;;;;;;5197602;27;20039;-62
2024/04/18 05:02:03;;;;;;;0.00;0.00;;;4.40;99.90;;;;;;5194967;27;20494;-62
2024/04/18 05:04:30;;;;;;;0.00;0.00;;;4.40;99.90;;;;;;5197947;27;20626;-62
2024/04/18 05:06:56;;;;;;;0.00;0.00;;;4.40;99.90;;;;;;5195319;27;20022;-62
2024/04/18 05:09:22;;;;;;;0.00;0.00;;;4.50;99.90;;;;;;5192519;27;20465;-62
2024/04/18 05:11:47;;;;;;;0.00;0.00;;;4.50;99.90;;;;;;5197276;27;20905;-62
2024/04/18 05:14:14;;;;;;;0.00;0.00;;;4.50;99.90;;;;;;5197075;27;20054;-62
2024/04/18 05:16:39;;;;;;;0.00;0.00;;;4.50;99.90;;;;;;5195948;27;20012;-62
2024/04/18 05:19:09;;;;;;;0.00;0.00;;;4.50;99.90;;;;;;5196096;27;20000;-62
2024/04/18 05:21:36;;;;;;;0.00;0.00;;;4.60;99.90;;;;;;5210889;27;20018;-62
2024/04/18 05:24:03;;;;;;;0.00;0.00;;;4.60;99.90;;;;;;5206861;27;20380;-62
2024/04/18 05:26:32;;;;;;;0.00;0.00;;;4.70;99.90;;;;;;5205904;27;20039;-62
2024/04/18 05:31:47;;;;;;;0.00;0.00;;;4.90;1.00;;;;;;5195761;27;20583;-62
2024/04/18 05:34:15;;;;;;;0.00;0.00;;;5.10;1.00;;;;;;5203110;27;20361;-62
2024/04/18 05:36:41;;;;;;;0.00;0.00;;;5.30;1.00;;;;;;5196444;27;20012;-63
2024/04/18 05:39:08;;;;;;;0.00;0.00;;;5.40;1.00;;;;;;5195138;27;20003;-63
2024/04/18 05:41:34;;;;;;;0.00;0.00;;;5.50;1.00;;;;;;5195569;27;20016;-62
2024/04/18 05:44:01;;;;;;;0.00;0.00;;;5.60;1.00;;;;;;5197287;27;20008;-62
2024/04/18 05:46:28;;;;;;;0.00;0.00;;;5.70;1.00;;;;;;5196106;27;20029;-62
2024/04/18 05:48:55;;;;;;;0.00;0.00;;;5.90;1.00;;;;;;5197401;27;20385;-62
2024/04/18 05:51:22;;;;;;;0.00;0.00;;;5.90;1.00;;;;;;5197738;27;20007;-63
2024/04/18 05:53:48;;;;;;;0.00;0.00;;;6.00;1.00;;;;;;5196271;27;20038;-63
2024/04/18 05:56:14;;;;;;;0.00;0.00;;;6.10;1.00;;;;;;5197212;27;20576;-63
2024/04/18 05:58:44;;;;;;;0.00;0.00;;;6.20;1.00;;;;;;5193595;27;20018;-63
2024/04/18 06:01:10;;;;;;;0.00;0.00;;;6.30;1.00;;;;;;5195999;27;20008;-63
2024/04/18 06:03:36;;;;;;;0.00;0.00;;;6.40;1.00;;;;;;5217256;27;20028;-63
2024/04/18 06:06:04;;;;;;;0.10;0.10;;;6.60;1.00;;;;;;5213481;27;20390;-63
2024/04/18 06:08:30;;;;;;;0.00;0.00;;;6.70;1.00;;;;;;5198455;27;20023;-62
2024/04/18 06:11:02;;;;;;;0.00;0.00;;;6.90;1.00;;;;;;5174086;27;20188;-63
2024/04/18 06:13:28;;;;;;;0.00;0.00;;;7.20;1.00;;;;;;5206084;27;20108;-63
2024/04/18 06:15:54;;;;;;;0.00;0.00;;;7.40;1.00;;;;;;5212660;27;20004;-63
2024/04/18 06:18:19;;;;;;;0.00;0.00;;;7.60;99.90;;;;;;5199428;27;20413;-62
2024/04/18 06:20:50;;;;;;;0.00;0.00;;;7.70;99.90;;;;;;5190975;27;20014;-63
2024/04/18 06:23:16;;;;;;;0.00;0.00;;;7.80;99.90;;;;;;5207625;27;20438;-63
2024/04/18 06:25:42;;;;;;;0.08;0.08;;;8.00;99.90;;;;;;5194614;27;20000;-63
2024/04/18 06:28:10;;;;;;;0.00;0.00;;;8.10;99.90;;;;;;5205380;27;20089;-63
2024/04/18 06:30:37;;;;;;;0.00;0.00;;;8.10;99.90;;;;;;5199301;27;20004;-63
2024/04/18 06:33:03;;;;;;;0.00;0.00;;;8.10;99.90;;;;;;5197103;27;20022;-63
2024/04/18 06:35:29;;;;;;;0.00;0.00;;;8.20;99.90;;;;;;5202840;27;20003;-64
2024/04/18 06:37:55;;;;;;;0.00;0.00;;;8.30;99.90;;;;;;5185742;27;20012;-63
2024/04/18 06:40:24;;;;;;;0.00;0.00;;;8.40;99.90;;;;;;5197091;27;20004;-63
2024/04/18 06:42:51;;;;;;;0.00;0.00;;;8.50;99.90;;;;;;5206793;27;20007;-63
2024/04/18 06:45:21;;;;;;;0.00;0.00;;;8.60;99.90;;;;;;5212042;27;20007;-64
2024/04/18 06:47:48;;;;;;;0.00;0.00;;;8.60;99.90;;;;;;5217182;27;20071;-64
2024/04/18 06:50:18;;;;;;;0.00;0.00;;;8.70;99.90;;;;;;5203454;27;20004;-63
2024/04/18 06:52:44;;;;;;;0.00;0.00;;;8.60;99.90;;;;;;5199752;27;20015;-63
2024/04/18 06:55:10;;;;;;;0.00;0.00;;;8.60;99.90;;;;;;5195240;27;20016;-63
2024/04/18 06:57:36;;;;;;;0.00;0.00;;;8.60;99.90;;;;;;5193223;27;20430;-63
2024/04/18 07:00:04;;;;;;;0.30;0.00;;;8.40;99.90;;;;;;5197305;27;20336;-63
2024/04/18 07:02:30;;;;;;;0.00;0.00;;;8.40;99.90;;;;;;5200781;27;20011;-61
2024/04/18 07:05:45;;;;;;;0.00;0.00;;;8.30;99.90;;;;;;5195665;27;20351;-61
2024/04/18 07:08:11;;;;;;;0.00;0.00;;;8.20;99.90;;;;;;5177920;27;20024;-61
2024/04/18 07:10:37;;;;;;;0.00;0.00;;;8.20;99.90;;;;;;5183975;27;20018;-61
2024/04/18 07:13:04;;;;;;;0.00;0.00;;;8.20;99.90;;;;;;5199282;27;20026;-61
2024/04/18 07:15:29;;;;;;;0.00;0.00;;;8.50;99.90;;;;;;5187309;27;20015;-61
2024/04/18 07:17:57;;;;;;;0.00;0.00;;;8.90;99.90;;;;;;5202929;27;20012;-62
2024/04/18 07:20:23;;;;;;;0.00;0.00;;;9.30;99.90;;;;;;5191047;27;20012;-61
2024/04/18 07:22:49;;;;;;;0.00;0.00;;;9.50;99.90;;;;;;5205205;27;20058;-61
2024/04/18 07:25:15;;;;;;;0.00;0.00;;;9.80;79.90;;;;;;5208032;27;20003;-61
2024/04/18 07:27:41;;;;;;;0.00;0.00;;;10.00;83.80;;;;;;5197249;27;20031;-61
2024/04/18 07:30:08;;;;;;;0.00;0.00;;;10.30;47.60;;;;;;5207794;27;20081;-61
2024/04/18 07:32:34;;;;;;;0.00;0.00;;;10.20;70.60;;;;;;5177217;27;20041;-61
2024/04/18 07:35:00;;;;;;;0.00;0.00;;;10.30;87.30;;;;;;5209056;27;20581;-61
2024/04/18 07:41:07;;;;;;;0.00;0.00;;;10.70;3.30;;;;;;5229714;22;20027;-61
2024/04/18 07:43:32;;;;;;;0.00;0.00;;;10.90;23.20;;;;;;5183808;27;20362;-62
2024/04/18 07:46:00;;;;;;;0.00;0.00;;;11.10;26.10;;;;;;5198448;27;20271;-61
2024/04/18 07:48:27;;;;;;;0.00;0.00;;;11.10;23.90;;;;;;5197689;27;20027;-61
2024/04/18 07:50:53;;;;;;;0.00;0.00;;;10.90;1.70;;;;;;5198297;27;20018;-61
2024/04/18 07:53:19;;;;;;;0.22;0.00;;;10.70;37.90;;;;;;5197579;27;20564;-62
2024/04/18 07:55:45;;;;;;;0.00;0.00;;;10.30;15.90;;;;;;5200421;27;20060;-61
2024/04/18 07:58:10;;;;;;;0.00;0.00;;;10.00;54.80;;;;;;5199217;27;20136;-61
2024/04/18 08:00:37;;;;;;;0.00;0.00;;;9.90;66.30;;;;;;5198044;27;20921;-62
2024/04/18 08:03:03;;;;;;;0.00;0.00;;;9.70;60.70;;;;;;5197760;27;20048;-61
2024/04/18 08:05:29;;;;;;;0.00;0.00;;;9.50;40.70;;;;;;5197774;27;20055;-61
2024/04/18 08:07:55;;;;;;;0.00;0.00;;;9.50;77.80;;;;;;5193959;27;20075;-62
2024/04/18 08:10:21;;;;;;;0.00;0.00;;;9.50;93.00;;;;;;5169558;27;20941;-61
2024/04/18 08:12:47;;;;;;;0.00;0.00;;;9.60;90.40;;;;;;5199747;27;20112;-62
2024/04/18 08:15:13;;;;;;;0.00;0.00;;;10.10;96.60;;;;;;5196693;27;20015;-62
2024/04/18 08:17:39;;;;;;;0.00;0.00;;;10.60;99.90;;;;;;5198931;27;20004;-62
2024/04/18 08:20:05;;;;;;;0.00;0.00;;;10.90;47.70;;;;;;5194579;27;20023;-61
2024/04/18 08:22:31;;;;;;;0.00;0.00;;;11.20;20.50;;;;;;5197811;27;20004;-61
2024/04/18 08:24:57;;;;;;;0.00;0.00;;;11.40;1.00;;;;;;5217134;27;20502;-61
2024/04/18 08:27:23;;;;;;;0.00;0.00;;;11.40;1.00;;;;;;5190792;27;20087;-62
2024/04/18 08:29:49;;;;;;;0.00;0.00;;;11.10;13.30;;;;;;5210389;27;20106;-62
2024/04/18 08:32:15;;;;;;;0.00;0.00;;;11.00;1.00;;;;;;5196934;27;20022;-61
2024/04/18 08:34:40;;;;;;;0.00;0.00;;;11.20;1.00;;;;;;5205652;27;20489;-61
2024/04/18 08:37:06;;;;;;;0.00;0.00;;;11.20;1.00;;;;;;5205948;27;20035;-62
2024/04/18 08:39:32;;;;;;;0.00;0.00;;;11.30;1.00;;;;;;5208431;27;20099;-61
2024/04/18 08:41:59;;;;;;;0.00;0.00;;;11.30;1.00;;;;;;5201668;27;20022;-61
2024/04/18 08:44:25;;;;;;;0.00;0.00;;;11.30;1.00;;;;;;5200086;27;20525;-61
2024/04/18 08:46:54;;;;;;;0.00;0.00;;;11.40;1.00;;;;;;5201690;27;20141;-61
2024/04/18 08:49:21;;;;;;;0.00;0.00;;;11.40;1.00;;;;;;5193154;27;20005;-61
2024/04/18 08:51:49;;;;;;;0.00;0.00;;;11.30;1.00;;;;;;5204514;27;20015;-61
2024/04/18 08:54:15;;;;;;;0.00;0.00;;;11.30;1.00;;;;;;5199176;27;20011;-62
2024/04/18 08:56:47;;;;;;;0.00;0.00;;;11.40;1.00;;;;;;5196540;27;20008;-61
2024/04/18 08:59:14;;;;;;;0.00;0.00;;;11.60;1.00;;;;;;5196194;27;20012;-61
2024/04/18 09:01:41;;;;;;;0.00;0.00;;;11.60;1.00;;;;;;5196090;27;20018;-61
2024/04/18 09:04:07;;;;;;;0.00;0.00;;;11.60;1.00;;;;;;5191372;27;20550;-61
2024/04/18 09:06:33;;;;;;;0.00;0.00;;;11.70;1.00;;;;;;5185314;27;20012;-61
2024/04/18 09:09:01;;;;;;;0.00;0.00;;;11.80;1.00;;;;;;5197051;27;20043;-61
2024/04/18 09:11:27;;;;;;;0.00;0.00;;;11.90;1.00;;;;;;5196602;27;20052;-61
2024/04/18 09:13:53;;;;;;;0.00;0.00;;;12.20;1.00;;;;;;5196876;27;20004;-61
2024/04/18 09:16:23;;;;;;;0.00;0.00;;;12.30;1.00;;;;;;5181893;27;20086;-61
2024/04/18 09:18:49;;;;;;;0.00;0.00;;;12.10;1.00;;;;;;5193174;27;20015;-61
2024/04/18 09:21:14;;;;;;;0.00;0.00;;;11.70;1.00;;;;;;5192680;27;20004;-61
2024/04/18 09:23:41;;;;;;;0.00;0.00;;;11.60;1.00;;;;;;5191841;27;20044;-63
2024/04/18 09:26:07;;;;;;;0.00;0.00;;;11.40;1.00;;;;;;5209502;27;20011;-61
2024/04/18 09:28:38;;;;;;;0.00;0.00;;;11.30;1.00;;;;;;5200695;27;20324;-61
2024/04/18 09:31:04;;;;;;;0.00;0.00;;;11.10;1.00;;;;;;5209113;27;20462;-61
2024/04/18 09:33:33;;;;;;;0.00;0.00;;;10.90;1.00;;;;;;5194766;27;20003;-61
2024/04/18 09:36:01;;;;;;;0.00;0.00;;;10.70;1.00;;;;;;5188503;27;20011;-61
2024/04/18 09:38:34;;;;;;;0.00;0.00;;;10.90;1.00;;;;;;5202649;27;21000;-61
2024/04/18 09:41:15;;;;;;;0.05;0.00;;;11.20;1.00;;;;;;5196737;27;20019;-61
2024/04/18 09:43:58;;;;;;;0.00;0.00;;;11.60;1.00;;;;;;5180376;27;20462;-61
2024/04/18 09:46:25;;;;;;;0.00;0.00;;;11.90;1.00;;;;;;5195923;27;20005;-61
2024/04/18 09:48:54;;;;;;;0.00;0.00;;;11.90;1.00;;;;;;5192102;27;20083;-61
2024/04/18 09:51:21;;;;;;;0.00;0.00;;;11.90;1.00;;;;;;5195035;27;19999;-61
2024/04/18 09:53:49;;;;;;;0.00;0.00;;;12.00;1.00;;;;;;5192199;27;20040;-61
2024/04/18 09:56:17;;;;;;;0.00;0.00;;;12.10;1.00;;;;;;5193150;27;20020;-61
2024/04/18 09:58:45;;;;;;;0.00;0.00;;;12.30;1.00;;;;;;5199621;27;20000;-62
2024/04/18 10:01:13;;;;;;;0.00;0.00;;;12.40;1.00;;;;;;5179914;27;20016;-62
2024/04/18 10:03:39;;;;;;;0.00;0.00;;;12.50;1.00;;;;;;5194919;27;20007;-62
2024/04/18 10:06:08;;;;;;;0.00;0.00;;;12.20;1.00;;;;;;5190002;27;20088;-62
2024/04/18 10:08:40;;;;;;;0.00;0.00;;;11.90;1.00;;;;;;5184998;27;20012;-62
2024/04/18 10:11:08;;;;;;;0.00;0.00;;;11.70;1.00;;;;;;5198331;27;20517;-62
2024/04/18 10:13:36;;;;;;;0.00;0.00;;;11.60;1.00;;;;;;5195453;27;20035;-62
2024/04/18 10:16:12;;;;;;;0.00;0.00;;;11.40;1.00;;;;;;5204897;27;20024;-62
2024/04/18 10:18:39;;;;;;;0.00;0.00;;;11.30;1.00;;;;;;5221053;27;20011;-62
2024/04/18 10:21:23;;;;;;;0.00;0.00;;;11.00;1.00;;;;;;5198201;27;20015;-62
2024/04/18 10:23:50;;;;;;;0.00;0.00;;;11.00;1.00;;;;;;5203873;27;20008;-62
2024/04/18 10:26:22;;;;;;;0.00;0.00;;;11.00;1.00;;;;;;5215641;27;20328;-62
2024/04/18 10:28:49;;;;;;;0.00;0.00;;;10.90;1.00;;;;;;5195182;27;20355;-62
2024/04/18 10:31:16;;;;;;;0.00;0.00;;;11.00;19.00;;;;;;5200077;27;20102;-62
2024/04/18 10:33:43;;;;;;;0.00;0.00;;;11.00;1.00;;;;;;5198279;27;20015;-62
2024/04/18 10:36:12;;;;;;;0.00;0.00;;;10.90;1.00;;;;;;5197441;27;20003;-62
2024/04/18 10:38:46;;;;;;;0.00;0.00;;;10.90;1.00;;;;;;5199504;27;20011;-62
2024/04/18 10:41:13;;;;;;;0.00;0.00;;;11.00;1.00;;;;;;5201090;27;20022;-62
2024/04/18 10:43:41;;;;;;;0.00;0.00;;;11.10;4.70;;;;;;5201642;27;20011;-63
2024/04/18 10:46:12;;;;;;;0.00;0.00;;;11.00;1.00;;;;;;5202151;27;20496;-62
2024/04/18 10:48:39;;;;;;;0.00;0.00;;;10.90;99.90;;;;;;5221399;27;20538;-62
2024/04/18 10:51:07;;;;;;;0.00;0.00;;;10.80;99.90;;;;;;5200299;27;20008;-62
2024/04/18 10:53:38;;;;;;;0.00;0.00;;;10.60;99.90;;;;;;5222848;27;20023;-63
2024/04/18 10:56:04;;;;;;;0.00;0.00;;;10.50;99.90;;;;;;5190458;27;20014;-62
2024/04/18 10:58:30;;;;;;;0.00;0.00;;;10.40;99.90;;;;;;5198744;27;20090;-62
2024/04/18 11:00:58;;;;;;;0.00;0.00;;;10.40;99.90;;;;;;5196007;27;20008;-62
2024/04/18 11:03:24;;;;;;;0.00;0.00;;;10.70;99.90;;;;;;5202086;27;20020;-62
2024/04/18 11:05:50;;;;;;;0.00;0.00;;;10.80;99.90;;;;;;5209616;27;20036;-62
2024/04/18 11:08:16;;;;;;;0.00;0.00;;;11.00;99.90;;;;;;5187416;27;19999;-62
2024/04/18 11:10:43;;;;;;;0.00;0.00;;;11.30;99.90;;;;;;5194750;27;20048;-62
2024/04/18 11:13:10;;;;;;;0.00;0.00;;;11.60;99.90;;;;;;5206673;27;20012;-62
2024/04/18 11:15:37;;;;;;;0.00;0.00;;;11.70;98.50;;;;;;5207328;27;20012;-62
2024/04/18 11:18:04;;;;;;;0.00;0.00;;;11.70;99.90;;;;;;5213663;27;20098;-62
2024/04/18 11:20:30;;;;;;;0.00;0.00;;;11.60;99.80;;;;;;5217057;27;20011;-62
2024/04/18 11:22:57;;;;;;;0.00;0.00;;;11.40;99.90;;;;;;5212333;27;20003;-63
2024/04/18 11:25:23;;;;;;;0.00;0.00;;;11.40;99.50;;;;;;5193353;27;20007;-63
2024/04/18 11:27:50;;;;;;;0.00;0.00;;;11.30;18.90;;;;;;5208640;27;20021;-63
2024/04/18 11:30:18;;;;;;;0.00;0.00;;;11.40;99.90;;;;;;5213686;27;20021;-63
2024/04/18 11:32:54;;;;;;;0.00;0.00;;;11.40;67.80;;;;;;5205407;27;20398;-63
2024/04/18 11:35:23;;;;;;;0.00;0.00;;;11.60;51.70;;;;;;5206493;27;20008;-63
2024/04/18 11:37:49;;;;;;;0.00;0.00;;;11.60;21.20;;;;;;5211396;27;20004;-63
2024/04/18 11:40:15;;;;;;;0.00;0.00;;;11.50;95.60;;;;;;5205075;27;20354;-63
2024/04/18 11:42:42;;;;;;;0.00;0.00;;;11.30;80.30;;;;;;5211335;27;20011;-63
2024/04/18 11:45:09;;;;;;;0.00;0.00;;;11.30;99.90;;;;;;5202981;27;20003;-64
2024/04/18 11:47:37;;;;;;;0.00;0.00;;;11.10;62.40;;;;;;5197918;27;20004;-63
2024/04/18 11:50:04;;;;;;;0.00;0.00;;;10.90;99.90;;;;;;5208149;27;20006;-63
2024/04/18 11:52:30;;;;;;;0.00;0.00;;;10.60;99.90;;;;;;5195180;27;20082;-63
2024/04/18 11:54:56;;;;;;;0.00;0.00;;;10.50;99.90;;;;;;5205077;27;20011;-63
2024/04/18 11:57:22;;;;;;;0.00;0.00;;;10.40;99.90;;;;;;5196082;27;20004;-64
2024/04/18 11:59:48;;;;;;;0.00;0.00;;;10.60;99.90;;;;;;5192366;27;20086;-64
2024/04/18 12:02:14;;;;;;;0.00;0.00;;;10.70;99.90;;;;;;5187331;27;20015;-63
2024/04/18 12:04:48;;;;;;;0.00;0.00;;;10.90;99.90;;;;;;5191454;27;20013;-63
2024/04/18 12:07:14;;;;;;;0.00;0.00;;;11.00;80.20;;;;;;5196707;27;20454;-63
2024/04/18 12:09:45;;;;;;;0.00;0.00;;;11.00;58.80;;;;;;5191563;27;20016;-64
2024/04/18 12:12:15;;;;;;;0.00;0.00;;;11.00;41.20;;;;;;5184694;27;20008;-63
2024/04/18 12:14:46;;;;;;;0.00;0.00;;;10.90;47.20;;;;;;5198977;27;20520;-63
2024/04/18 12:17:12;;;;;;;0.10;0.00;;;10.80;9.60;;;;;;5176773;27;20074;-63
2024/04/18 12:19:38;;;;;;;0.00;0.00;;;10.70;58.60;;;;;;5197768;27;20442;-64
2024/04/18 12:22:08;;;;;;;0.00;0.00;;;10.70;34.70;;;;;;5196868;27;20000;-64
2024/04/18 12:24:35;;;;;;;0.00;0.00;;;10.80;63.10;;;;;;5185021;27;20690;-63
2024/04/18 12:27:00;;;;;;;0.00;0.00;;;10.80;56.30;;;;;;5192961;27;20474;-64
2024/04/18 12:29:26;;;;;;;0.00;0.00;;;10.70;73.70;;;;;;5198193;27;20011;-64
2024/04/18 12:31:54;;;;;;;0.00;0.00;;;10.70;43.70;;;;;;5218393;27;20081;-64
2024/04/18 12:34:23;;;;;;;0.00;0.00;;;10.60;74.70;;;;;;5216480;27;20692;-64
2024/04/18 12:36:49;;;;;;;0.00;0.00;;;10.70;99.90;;;;;;5201677;27;20063;-64
2024/04/18 12:39:15;;;;;;;0.00;0.00;;;10.70;73.10;;;;;;5195751;27;20709;-64
2024/04/18 12:41:41;;;;;;;0.00;0.00;;;10.80;52.40;;;;;;5194843;27;20003;-63
2024/04/18 12:44:07;;;;;;;0.00;0.00;;;11.00;99.90;;;;;;5199939;27;20026;-64
2024/04/18 12:46:34;;;;;;;0.43;0.10;;;11.10;70.10;;;;;;5200303;27;20011;-64
2024/04/18 12:48:59;;;;;;;0.00;0.00;;;11.00;48.90;;;;;;5201154;27;20101;-64
2024/04/18 12:51:25;;;;;;;0.00;0.00;;;10.80;1.00;;;;;;5195706;27;20387;-64
2024/04/18 12:53:52;;;;;;;0.00;0.00;;;10.80;47.90;;;;;;5182129;27;20009;-63
2024/04/18 12:56:19;;;;;;;0.32;0.00;;;11.10;99.90;;;;;;5196994;27;20338;-63
2024/04/18 12:58:44;;;;;;;0.00;0.00;;;11.40;25.40;;;;;;5210379;27;20919;-64
2024/04/18 13:01:11;;;;;;;0.00;0.00;;;11.70;23.20;;;;;;5209579;27;20387;-64
2024/04/18 13:03:41;;;;;;;0.00;0.00;;;11.70;97.00;;;;;;5212258;27;20024;-64